createdAt,value
2022-11-30T00:08:37.669Z,97586.95
2022-11-30T00:18:42.095Z,97595.66
2022-11-30T00:28:47.027Z,97596.39
2022-11-30T00:38:52.075Z,97598.45
2022-11-30T00:48:55.856Z,97600.80
2022-11-30T00:58:59.814Z,97600.58
2022-11-30T01:09:05.543Z,97599.10
2022-11-30T01:19:09.517Z,97594.98
2022-11-30T01:29:13.180Z,97588.74
2022-11-30T01:39:17.039Z,97590.55
2022-11-30T01:49:30.648Z,97594.16
2022-11-30T01:59:34.918Z,97597.59
2022-11-30T02:09:44.671Z,97610.65
2022-11-30T02:20:22.144Z,97632.52
2022-11-30T02:30:26.723Z,97625.90
2022-11-30T02:40:30.786Z,97629.61
2022-11-30T02:50:47.876Z,97630.23
2022-11-30T03:00:51.638Z,97627.21
2022-11-30T03:10:55.297Z,97629.98
2022-11-30T03:20:59.188Z,97636.10
2022-11-30T03:31:03.229Z,97643.55
2022-11-30T03:41:14.503Z,97649.47
2022-11-30T03:51:18.263Z,97651.49
2022-11-30T04:01:23.893Z,97650.95
2022-11-30T04:11:27.629Z,97659.36
2022-11-30T04:21:31.335Z,97664.33
2022-11-30T04:31:35.505Z,97669.25
2022-11-30T04:41:40.254Z,97669.61
2022-11-30T04:51:44.047Z,97670.95
2022-11-30T05:01:47.934Z,97678.84
2022-11-30T05:11:52.278Z,97679.48
2022-11-30T05:21:56.038Z,97673.70
2022-11-30T05:31:59.736Z,97683.56
2022-11-30T05:42:04.100Z,97688.46
2022-11-30T05:52:08.059Z,97678.77
2022-11-30T06:02:11.927Z,97687.72
2022-11-30T06:12:16.219Z,97692.98
2022-11-30T06:22:20.410Z,97701.27
2022-11-30T06:32:24.252Z,97702.86
2022-11-30T06:42:34.568Z,97701.09
2022-11-30T06:52:38.439Z,97704.23
2022-11-30T07:02:42.318Z,97708.65
2022-11-30T07:12:46.998Z,97705.35
2022-11-30T07:22:50.964Z,97711.28
2022-11-30T07:32:54.763Z,97725.31
2022-11-30T07:42:58.596Z,97735.13
2022-11-30T07:53:02.358Z,97738.17
2022-11-30T08:03:06.839Z,97736.40
2022-11-30T08:13:10.504Z,97738.86
2022-11-30T08:23:14.513Z,97734.44
2022-11-30T08:33:18.445Z,97737.81
2022-11-30T08:43:22.338Z,97744.77
2022-11-30T08:53:27.103Z,97754.00
2022-11-30T09:03:30.670Z,97751.88
2022-11-30T09:13:35.062Z,97742.09
2022-11-30T09:23:39.733Z,97742.37
2022-11-30T09:33:45.112Z,97746.21
2022-11-30T09:44:06.123Z,97739.70
2022-11-30T09:54:20.507Z,97735.36
2022-11-30T10:04:30.247Z,97732.02
2022-11-30T10:15:09.896Z,97722.29
2022-11-30T10:25:23.857Z,97720.61
2022-11-30T10:35:39.199Z,97703.80
2022-11-30T10:45:49.249Z,97693.62
2022-11-30T10:55:58.410Z,97692.97
2022-11-30T11:06:25.867Z,97695.43
2022-11-30T11:16:52.018Z,97700.71
2022-11-30T11:26:57.727Z,97698.89
2022-11-30T11:37:16.848Z,97695.75
2022-11-30T11:47:27.422Z,97696.94
2022-11-30T11:57:42.180Z,97703.13
2022-11-30T12:08:15.233Z,97705.16
2022-11-30T12:18:24.834Z,97711.27
2022-11-30T12:28:31.969Z,97710.50
2022-11-30T12:38:56.029Z,97709.88
2022-11-30T12:49:22.986Z,97712.02
2022-11-30T12:59:55.822Z,97709.02
2022-11-30T13:10:30.079Z,97706.45
2022-11-30T13:20:45.544Z,97704.14
2022-11-30T13:30:58.926Z,97697.38
2022-11-30T13:41:05.511Z,97702.31
2022-11-30T13:51:10.528Z,97699.13
2022-11-30T14:01:27.139Z,97694.82
2022-11-30T14:11:40.133Z,97694.11
2022-11-30T14:21:45.517Z,97693.52
2022-11-30T14:32:00.241Z,97691.73
2022-11-30T14:42:06.946Z,97697.54
2022-11-30T14:52:15.965Z,97699.15
2022-11-30T15:02:22.838Z,97702.27
2022-11-30T15:12:26.950Z,97712.09
2022-11-30T15:22:34.472Z,97723.02
2022-11-30T15:32:38.150Z,97723.09
2022-11-30T15:42:42.625Z,97730.56
2022-11-30T15:52:48.727Z,97741.15
2022-11-30T16:03:09.184Z,97746.93
2022-11-30T16:13:18.267Z,97749.09
2022-11-30T16:23:23.090Z,97754.76
2022-11-30T16:33:30.398Z,97754.58
2022-11-30T16:43:35.186Z,97762.86
2022-11-30T16:53:44.419Z,97762.48
2022-11-30T17:03:51.829Z,97757.19
2022-11-30T17:13:56.623Z,97758.89
2022-11-30T17:24:05.819Z,97760.36
2022-11-30T17:34:09.888Z,97760.85
2022-11-30T17:44:14.178Z,97765.15
2022-11-30T17:54:18.957Z,97761.55
2022-11-30T18:04:23.546Z,97766.52
2022-11-30T18:14:29.047Z,97777.40
2022-11-30T18:24:33.732Z,97773.02
2022-11-30T18:34:39.411Z,97773.14
2022-11-30T18:44:45.264Z,97778.00
2022-11-30T18:54:51.435Z,97793.64
2022-11-30T19:04:56.386Z,97795.05
2022-11-30T19:15:02.505Z,97795.96
2022-11-30T19:25:09.254Z,97798.21
2022-11-30T19:35:17.516Z,97791.77
2022-11-30T19:45:25.042Z,97795.56
2022-11-30T19:55:30.857Z,97799.69
2022-11-30T20:05:39.028Z,97793.66
2022-11-30T20:15:44.144Z,97793.20
2022-11-30T20:25:52.159Z,97802.70
2022-11-30T20:35:58.813Z,97793.76
2022-11-30T20:46:34.133Z,97790.94
2022-11-30T20:56:40.657Z,97797.77
2022-11-30T21:06:49.027Z,97800.54
2022-11-30T21:16:54.716Z,97803.23
2022-11-30T21:27:00.165Z,97790.49
2022-11-30T21:37:04.399Z,97794.30
2022-11-30T21:47:09.394Z,97800.00
2022-11-30T21:57:13.069Z,97795.77
2022-11-30T22:07:17.029Z,97782.63
2022-11-30T22:17:21.112Z,97785.20
2022-11-30T22:27:25.084Z,97786.02
2022-11-30T22:37:28.866Z,97793.14
2022-11-30T22:47:32.837Z,97782.69
2022-11-30T22:57:38.090Z,97773.46
2022-11-30T23:07:41.748Z,97768.43
2022-11-30T23:17:45.458Z,97767.11
2022-11-30T23:27:49.328Z,97761.48
2022-11-30T23:37:53.295Z,97756.14
2022-11-30T23:47:56.963Z,97751.05
2022-11-30T23:58:00.733Z,97741.95
